Terminal Aerodrome Forecast
Issued by NWS Riverton, WY

Home | Current Version | Previous Version | Text Only | Print | Product List | Glossary On
Versions: 1 2 3 4 5 6 7 8 9 10 11 12
000
FTUS45 KRIW 051126
TAFRIW
TAF
KRIW 051126Z 0512/0612 27006KT P6SM SCT110 BKN200
     FM051800 VRB06KT P6SM BKN100
     FM052100 03010KT P6SM VCTS BKN090CB
     FM060300 01014KT P6SM -SHRA OVC035
     FM060800 02008KT P6SM VCSH OVC020=

USA.gov is the U.S. government's official web portal to all federal, state and local government web resources and services.